createdAt,value
2018-07-31T00:02:19.790Z,27.68
2018-07-31T00:04:50.732Z,27.62
2018-07-31T00:07:20.772Z,27.64
2018-07-31T00:09:51.076Z,27.57
2018-07-31T00:12:20.720Z,27.57
2018-07-31T00:14:50.566Z,27.48
2018-07-31T00:17:20.228Z,27.43
2018-07-31T00:19:49.894Z,27.44
2018-07-31T00:22:27.734Z,27.45
2018-07-31T00:25:03.675Z,27.42
2018-07-31T00:27:47.026Z,27.37
2018-07-31T00:30:27.725Z,27.24
2018-07-31T00:32:58.839Z,27.21
2018-07-31T00:35:33.339Z,27.17
2018-07-31T00:38:03.136Z,27.16
2018-07-31T00:40:37.040Z,27.10
2018-07-31T00:43:08.559Z,27.06
2018-07-31T00:45:38.249Z,27.04
2018-07-31T00:50:52.976Z,27.02
2018-07-31T00:53:22.929Z,27.04
2018-07-31T00:55:52.599Z,27.00
2018-07-31T00:58:22.709Z,26.99
2018-07-31T01:00:52.661Z,26.95
2018-07-31T01:03:22.328Z,26.95
2018-07-31T01:05:52.016Z,26.90
2018-07-31T01:08:22.077Z,26.76
2018-07-31T01:10:52.155Z,26.56
2018-07-31T01:13:22.269Z,26.47
2018-07-31T01:15:51.977Z,26.27
2018-07-31T01:18:21.635Z,26.14
2018-07-31T01:20:52.402Z,26.13
2018-07-31T01:23:22.377Z,26.16
2018-07-31T01:25:52.185Z,26.07
2018-07-31T01:28:21.962Z,26.02
2018-07-31T01:30:52.707Z,26.03
2018-07-31T01:33:22.324Z,26.11
2018-07-31T01:35:51.944Z,26.14
2018-07-31T01:38:21.632Z,26.20
2018-07-31T01:40:57.435Z,26.10
2018-07-31T01:43:27.062Z,25.96
2018-07-31T01:45:56.753Z,25.92
2018-07-31T01:48:26.952Z,25.98
2018-07-31T01:50:56.578Z,25.90
2018-07-31T01:53:26.181Z,25.83
2018-07-31T01:55:55.855Z,25.73
2018-07-31T01:58:27.155Z,25.76
2018-07-31T02:00:56.912Z,25.83
2018-07-31T02:03:31.155Z,25.79
2018-07-31T02:06:00.809Z,25.58
2018-07-31T02:08:34.086Z,25.52
2018-07-31T02:11:04.847Z,25.44
2018-07-31T02:13:34.487Z,25.45
2018-07-31T02:16:08.624Z,25.21
2018-07-31T02:18:38.291Z,25.19
2018-07-31T02:21:08.684Z,25.21
2018-07-31T02:23:38.827Z,25.27
2018-07-31T02:26:08.841Z,25.21
2018-07-31T02:28:38.676Z,25.24
2018-07-31T02:31:08.709Z,25.24
2018-07-31T02:33:38.350Z,25.20
2018-07-31T02:36:08.746Z,25.23
2018-07-31T02:38:38.389Z,25.27
2018-07-31T02:41:08.353Z,25.31
2018-07-31T02:43:38.443Z,25.31
2018-07-31T02:46:08.328Z,25.34
2018-07-31T02:48:38.061Z,25.27
2018-07-31T02:51:08.403Z,25.26
2018-07-31T02:53:38.091Z,25.21
2018-07-31T02:56:08.249Z,25.25
2018-07-31T02:58:37.895Z,25.23
2018-07-31T03:01:07.652Z,25.18
2018-07-31T03:03:37.289Z,25.14
2018-07-31T03:06:07.083Z,25.15
2018-07-31T03:08:36.794Z,25.13
2018-07-31T03:11:06.653Z,25.12
2018-07-31T03:13:36.316Z,25.10
2018-07-31T03:16:06.572Z,24.98
2018-07-31T03:18:36.471Z,24.85
2018-07-31T03:21:06.306Z,24.80
2018-07-31T03:23:36.070Z,24.77
2018-07-31T03:26:05.797Z,24.74
2018-07-31T03:28:35.467Z,24.71
2018-07-31T03:34:02.561Z,24.75
2018-07-31T03:36:32.514Z,24.76
2018-07-31T03:39:02.759Z,24.72
2018-07-31T03:41:32.369Z,24.79
2018-07-31T03:44:02.083Z,24.78
2018-07-31T03:46:31.751Z,24.73
2018-07-31T03:49:01.429Z,24.74
2018-07-31T03:51:31.469Z,24.72
2018-07-31T03:54:01.209Z,24.75
2018-07-31T03:56:31.043Z,24.75
2018-07-31T03:59:00.960Z,24.72
2018-07-31T04:01:30.641Z,24.67
2018-07-31T04:04:00.777Z,24.62
2018-07-31T04:06:30.505Z,24.55
2018-07-31T04:09:00.211Z,24.51
2018-07-31T04:11:29.927Z,24.38
2018-07-31T04:13:59.916Z,24.42
2018-07-31T04:16:30.201Z,24.48
2018-07-31T04:19:06.551Z,24.46
2018-07-31T04:21:36.553Z,24.42
2018-07-31T04:24:06.312Z,24.47
2018-07-31T04:26:36.905Z,24.44
2018-07-31T04:29:22.750Z,24.42
2018-07-31T04:31:53.686Z,24.40
2018-07-31T04:34:26.980Z,24.34
2018-07-31T04:36:56.758Z,24.31
2018-07-31T04:39:27.792Z,24.32
2018-07-31T04:41:57.487Z,24.32
2018-07-31T04:44:27.142Z,24.31
2018-07-31T04:46:57.325Z,24.30
2018-07-31T04:49:28.923Z,24.29
2018-07-31T04:51:58.735Z,24.35
2018-07-31T04:54:28.413Z,24.40
2018-07-31T04:56:58.112Z,24.42
2018-07-31T04:59:27.917Z,24.46
2018-07-31T05:01:57.633Z,24.51
2018-07-31T05:04:27.292Z,24.55
2018-07-31T05:06:57.122Z,24.55
2018-07-31T05:09:26.814Z,24.57
2018-07-31T05:11:56.478Z,24.57
2018-07-31T05:14:26.184Z,24.47
2018-07-31T05:16:56.172Z,24.46
2018-07-31T05:19:32.521Z,24.49
2018-07-31T05:22:02.306Z,24.49
2018-07-31T05:24:31.961Z,24.51
2018-07-31T05:27:01.640Z,24.48
2018-07-31T05:29:31.296Z,24.51
2018-07-31T05:32:01.555Z,24.56
2018-07-31T05:34:31.229Z,24.63
2018-07-31T05:37:00.969Z,24.64
2018-07-31T05:39:31.916Z,24.69
2018-07-31T05:42:04.549Z,24.74
2018-07-31T05:44:34.233Z,24.78
2018-07-31T05:47:03.886Z,24.80
2018-07-31T05:49:33.642Z,24.81
2018-07-31T05:52:03.491Z,24.86
2018-07-31T05:54:33.213Z,24.81
2018-07-31T05:57:03.038Z,24.79
2018-07-31T05:59:32.665Z,24.76
2018-07-31T06:02:03.422Z,24.69
2018-07-31T06:04:34.816Z,24.70
2018-07-31T06:07:05.108Z,24.74
2018-07-31T06:09:34.834Z,24.88
2018-07-31T06:12:04.727Z,25.05
2018-07-31T06:14:34.734Z,25.16
2018-07-31T06:17:04.631Z,25.28
2018-07-31T06:19:34.243Z,25.43
2018-07-31T06:22:04.017Z,25.67
2018-07-31T06:24:33.847Z,26.07
2018-07-31T06:27:06.946Z,26.46
2018-07-31T06:32:21.107Z,27.06
2018-07-31T06:34:51.108Z,27.12
2018-07-31T06:37:23.308Z,27.17
2018-07-31T06:39:53.592Z,27.40
2018-07-31T06:42:23.302Z,27.63
2018-07-31T06:44:52.984Z,27.97
2018-07-31T06:47:22.968Z,28.06
2018-07-31T06:50:00.872Z,28.00
2018-07-31T06:52:36.843Z,28.16
2018-07-31T06:55:08.747Z,28.53
2018-07-31T06:57:39.425Z,28.92
2018-07-31T07:00:09.624Z,29.39
2018-07-31T07:02:40.497Z,29.76
2018-07-31T07:05:10.224Z,29.79
2018-07-31T07:07:41.927Z,29.76
2018-07-31T07:10:11.961Z,29.64
2018-07-31T07:12:43.378Z,29.53
2018-07-31T07:15:14.950Z,29.63
2018-07-31T07:17:48.560Z,29.76
2018-07-31T07:20:21.844Z,29.76
2018-07-31T07:22:52.647Z,29.42
2018-07-31T07:25:27.334Z,29.04
2018-07-31T07:27:57.250Z,28.85
2018-07-31T07:30:29.905Z,28.73
2018-07-31T07:33:02.241Z,28.63
2018-07-31T07:35:32.139Z,28.62
2018-07-31T07:38:06.726Z,28.40
2018-07-31T07:40:36.740Z,28.35
2018-07-31T07:43:06.717Z,28.57
2018-07-31T07:45:38.794Z,28.83
2018-07-31T07:48:11.960Z,28.93
2018-07-31T07:50:41.743Z,29.13
2018-07-31T07:53:11.844Z,29.47
2018-07-31T07:55:42.384Z,29.98
2018-07-31T07:59:15.585Z,30.42
2018-07-31T08:04:39.494Z,31.19
2018-07-31T08:07:09.295Z,31.57
2018-07-31T08:09:39.031Z,31.93
2018-07-31T08:12:09.233Z,32.12
2018-07-31T08:14:38.921Z,32.18
2018-07-31T08:17:08.600Z,32.13
2018-07-31T08:19:40.793Z,32.32
2018-07-31T08:22:10.853Z,32.54
2018-07-31T08:24:42.702Z,32.72
2018-07-31T08:27:12.641Z,32.79
2018-07-31T08:29:44.500Z,32.60
2018-07-31T08:32:14.987Z,32.52
2018-07-31T08:34:46.075Z,32.73
2018-07-31T08:37:15.983Z,33.17
2018-07-31T08:39:46.043Z,33.51
2018-07-31T08:42:20.791Z,33.84
2018-07-31T08:44:51.017Z,34.07
2018-07-31T08:47:22.416Z,33.43
2018-07-31T08:49:55.987Z,33.45
2018-07-31T08:52:25.700Z,32.97
2018-07-31T08:54:55.677Z,32.80
2018-07-31T08:57:26.365Z,33.01
2018-07-31T08:59:58.240Z,33.26
2018-07-31T09:02:28.937Z,33.29
2018-07-31T09:04:58.696Z,33.47
2018-07-31T09:07:28.318Z,33.57
2018-07-31T09:09:58.029Z,33.39
2018-07-31T09:12:29.196Z,33.07
2018-07-31T09:14:58.987Z,32.95
2018-07-31T09:17:28.899Z,33.06
2018-07-31T09:22:41.855Z,33.45
2018-07-31T09:25:18.103Z,33.71
2018-07-31T09:27:49.990Z,34.03
2018-07-31T09:30:27.013Z,34.22
2018-07-31T09:33:02.617Z,34.26
2018-07-31T09:35:40.036Z,34.42
2018-07-31T09:38:10.653Z,34.39
2018-07-31T09:40:47.442Z,34.04
2018-07-31T09:43:17.371Z,33.83
2018-07-31T09:45:47.555Z,32.89
2018-07-31T09:48:17.352Z,32.65
2018-07-31T09:50:47.061Z,31.97
2018-07-31T09:53:16.727Z,32.20
2018-07-31T09:55:46.650Z,32.42
2018-07-31T09:58:16.509Z,32.66
2018-07-31T10:00:52.512Z,32.80
2018-07-31T10:03:24.726Z,32.41
2018-07-31T10:05:58.547Z,32.21
2018-07-31T10:08:28.490Z,32.06
2018-07-31T10:11:01.849Z,32.27
2018-07-31T10:13:32.568Z,32.46
2018-07-31T10:16:02.808Z,32.64
2018-07-31T10:21:38.795Z,33.42
2018-07-31T10:24:08.860Z,33.55
2018-07-31T10:26:38.993Z,33.74
2018-07-31T10:29:11.385Z,33.73
2018-07-31T10:31:41.428Z,33.73
2018-07-31T10:34:11.541Z,33.66
2018-07-31T10:36:41.658Z,33.24
2018-07-31T10:39:15.396Z,33.37
2018-07-31T10:41:48.079Z,33.42
2018-07-31T10:44:19.986Z,32.88
2018-07-31T10:46:49.750Z,32.90
2018-07-31T10:49:25.108Z,32.92
2018-07-31T10:52:17.517Z,32.83
2018-07-31T10:54:50.601Z,32.96
2018-07-31T10:57:23.174Z,33.13
2018-07-31T10:59:59.504Z,32.93
2018-07-31T11:02:31.877Z,32.79
2018-07-31T11:05:02.154Z,32.85
2018-07-31T11:07:34.920Z,33.23
2018-07-31T11:10:10.362Z,33.54
2018-07-31T11:12:41.155Z,33.97
2018-07-31T11:15:13.306Z,34.06
2018-07-31T11:17:46.651Z,33.99
2018-07-31T11:20:17.598Z,33.78
2018-07-31T11:22:47.981Z,33.46
2018-07-31T11:25:19.306Z,33.22
2018-07-31T11:27:49.439Z,33.01
2018-07-31T11:30:25.775Z,32.84
2018-07-31T11:32:58.356Z,33.01
2018-07-31T11:35:33.168Z,33.12
2018-07-31T11:38:07.688Z,33.35
2018-07-31T11:40:47.146Z,33.43
2018-07-31T11:43:24.709Z,33.36
2018-07-31T11:45:57.281Z,33.28
2018-07-31T11:48:44.861Z,33.18
2018-07-31T11:51:19.024Z,33.47
2018-07-31T11:53:54.538Z,33.70
2018-07-31T11:56:29.058Z,33.35
2018-07-31T11:59:02.012Z,33.48
2018-07-31T12:01:31.691Z,33.23
2018-07-31T12:06:39.034Z,33.04
2018-07-31T12:09:12.389Z,32.81
2018-07-31T12:11:43.556Z,32.84
2018-07-31T12:14:14.230Z,32.83
2018-07-31T12:16:46.800Z,32.97
2018-07-31T12:19:17.824Z,33.10
2018-07-31T12:21:48.477Z,33.21
2018-07-31T12:24:18.469Z,33.08
2018-07-31T12:26:49.742Z,33.26
2018-07-31T12:29:20.819Z,33.35
2018-07-31T12:31:53.795Z,33.23
2018-07-31T12:34:24.909Z,33.09
2018-07-31T12:36:54.575Z,33.26
2018-07-31T12:39:25.016Z,33.33
2018-07-31T12:41:54.629Z,33.24
2018-07-31T12:44:24.354Z,33.02
2018-07-31T12:46:57.167Z,32.94
2018-07-31T12:49:26.804Z,32.86
2018-07-31T12:51:56.583Z,32.85
2018-07-31T12:54:26.435Z,32.62
2018-07-31T12:57:02.777Z,32.52
2018-07-31T12:59:32.434Z,32.55
2018-07-31T13:02:02.369Z,32.65
2018-07-31T13:04:34.985Z,32.81
2018-07-31T13:07:06.040Z,33.05
2018-07-31T13:09:35.871Z,33.14
2018-07-31T13:12:06.424Z,33.18
2018-07-31T13:14:38.136Z,33.08
2018-07-31T13:17:11.882Z,32.92
2018-07-31T13:19:41.752Z,33.05
2018-07-31T13:22:11.770Z,33.04
2018-07-31T13:24:41.495Z,33.11
2018-07-31T13:27:11.578Z,33.07
2018-07-31T13:29:41.358Z,33.14
2018-07-31T13:32:13.447Z,33.23
2018-07-31T13:34:43.160Z,33.21
2018-07-31T13:37:14.141Z,33.14
2018-07-31T13:39:44.085Z,33.11
2018-07-31T13:42:22.660Z,33.19
2018-07-31T13:44:53.618Z,33.03
2018-07-31T13:47:23.598Z,32.95
2018-07-31T13:49:53.351Z,33.06
2018-07-31T13:52:24.533Z,33.04
2018-07-31T13:54:54.159Z,33.16
2018-07-31T13:57:23.824Z,33.11
2018-07-31T13:59:53.464Z,33.30
2018-07-31T14:02:23.116Z,33.34
2018-07-31T14:04:53.631Z,33.38
2018-07-31T14:07:24.049Z,33.47
2018-07-31T14:09:57.793Z,33.45
2018-07-31T14:12:27.685Z,33.49
2018-07-31T14:14:57.341Z,33.25
2018-07-31T14:17:27.095Z,33.23
2018-07-31T14:19:56.903Z,33.26
2018-07-31T14:22:26.720Z,32.95
2018-07-31T14:24:56.737Z,32.91
2018-07-31T14:27:26.603Z,32.80
2018-07-31T14:29:56.244Z,32.86
2018-07-31T14:32:26.648Z,32.65
2018-07-31T14:34:56.468Z,32.72
2018-07-31T14:37:26.291Z,32.90
2018-07-31T14:39:56.727Z,32.96
2018-07-31T14:42:26.694Z,32.94
2018-07-31T14:44:56.478Z,32.80
2018-07-31T14:47:27.312Z,32.90
2018-07-31T14:49:57.084Z,32.92
2018-07-31T14:52:29.700Z,32.87
2018-07-31T14:54:59.531Z,32.81
2018-07-31T14:57:31.799Z,32.77
2018-07-31T15:00:01.777Z,32.73
2018-07-31T15:02:40.356Z,32.67
2018-07-31T15:05:10.229Z,32.59
2018-07-31T15:07:39.995Z,32.50
2018-07-31T15:10:10.221Z,32.51
2018-07-31T15:12:40.095Z,32.54
2018-07-31T15:15:09.892Z,32.41
2018-07-31T15:17:39.874Z,32.38
2018-07-31T15:20:10.051Z,32.42
2018-07-31T15:22:39.783Z,32.40
2018-07-31T15:25:09.631Z,32.53
2018-07-31T15:27:39.774Z,32.57
2018-07-31T15:30:09.954Z,32.50
2018-07-31T15:32:41.387Z,32.46
2018-07-31T15:35:11.110Z,32.47
2018-07-31T15:37:41.163Z,32.62
2018-07-31T15:40:10.915Z,32.54
2018-07-31T15:42:40.633Z,32.50
2018-07-31T15:45:10.496Z,32.37
2018-07-31T15:47:40.287Z,32.33
2018-07-31T15:50:10.542Z,32.44
2018-07-31T15:52:40.144Z,32.37
2018-07-31T15:55:09.834Z,32.33
2018-07-31T15:57:42.537Z,32.29
2018-07-31T16:00:13.125Z,32.25
2018-07-31T16:02:42.914Z,32.04
2018-07-31T16:05:12.802Z,31.95
2018-07-31T16:07:42.637Z,31.95
2018-07-31T16:10:12.797Z,32.05
2018-07-31T16:12:42.599Z,31.99
2018-07-31T16:15:12.384Z,31.95
2018-07-31T16:17:42.098Z,31.94
2018-07-31T16:20:11.909Z,31.98
2018-07-31T16:22:41.737Z,32.15
2018-07-31T16:25:11.602Z,32.20
2018-07-31T16:27:41.924Z,32.18
2018-07-31T16:30:11.665Z,32.18
2018-07-31T16:32:41.327Z,32.15
2018-07-31T16:35:13.276Z,32.08
2018-07-31T16:37:52.149Z,32.11
2018-07-31T16:40:22.513Z,32.11
2018-07-31T16:42:56.874Z,32.09
2018-07-31T16:45:27.893Z,32.05
2018-07-31T16:47:57.731Z,32.02
2018-07-31T16:50:27.519Z,32.12
2018-07-31T16:52:57.944Z,32.06
2018-07-31T16:55:27.860Z,32.08
2018-07-31T16:57:57.929Z,32.05
2018-07-31T17:00:27.813Z,32.10
2018-07-31T17:02:57.569Z,32.11
2018-07-31T17:05:28.298Z,32.02
2018-07-31T17:07:58.310Z,32.00
2018-07-31T17:10:28.347Z,31.93
2018-07-31T17:12:59.314Z,31.79
2018-07-31T17:15:29.434Z,31.64
2018-07-31T17:17:59.311Z,31.62
2018-07-31T17:20:29.174Z,31.40
2018-07-31T17:22:58.954Z,31.47
2018-07-31T17:25:28.729Z,31.50
2018-07-31T17:27:58.486Z,31.43
2018-07-31T17:30:28.091Z,31.50
2018-07-31T17:32:57.903Z,31.44
2018-07-31T17:35:28.010Z,31.34
2018-07-31T17:37:59.229Z,31.28
2018-07-31T17:40:29.809Z,31.14
2018-07-31T17:42:59.614Z,31.05
2018-07-31T17:45:29.245Z,31.01
2018-07-31T17:48:07.356Z,31.00
2018-07-31T17:50:37.115Z,30.95
2018-07-31T17:53:07.360Z,30.90
2018-07-31T17:55:37.032Z,30.84
2018-07-31T17:58:06.701Z,30.85
2018-07-31T18:00:36.504Z,30.65
2018-07-31T18:03:06.198Z,30.69
2018-07-31T18:05:38.627Z,30.55
2018-07-31T18:08:27.231Z,30.44
2018-07-31T18:10:56.952Z,30.37
2018-07-31T18:13:26.906Z,30.33
2018-07-31T18:15:57.095Z,30.35
2018-07-31T18:18:27.201Z,30.35
2018-07-31T18:20:56.846Z,30.29
2018-07-31T18:26:26.820Z,29.93
2018-07-31T18:28:56.535Z,29.91
2018-07-31T18:31:26.185Z,29.71
2018-07-31T18:33:56.017Z,29.55
2018-07-31T18:36:26.062Z,29.51
2018-07-31T18:38:56.218Z,29.54
2018-07-31T18:41:26.016Z,29.53
2018-07-31T18:43:56.069Z,29.52
2018-07-31T18:46:25.748Z,29.29
2018-07-31T18:48:55.554Z,29.28
2018-07-31T18:51:25.253Z,29.27
2018-07-31T18:53:54.873Z,29.27
2018-07-31T18:56:24.631Z,29.20
2018-07-31T18:58:55.005Z,29.24
2018-07-31T19:01:24.964Z,29.24
2018-07-31T19:03:54.826Z,29.17
2018-07-31T19:06:24.487Z,28.99
2018-07-31T19:09:00.481Z,28.83
2018-07-31T19:11:30.487Z,28.71
2018-07-31T19:14:00.178Z,28.62
2018-07-31T19:16:30.105Z,28.59
2018-07-31T19:24:21.753Z,28.36
2018-07-31T19:26:51.541Z,28.26
2018-07-31T19:29:21.245Z,28.21
2018-07-31T19:31:50.892Z,28.21
2018-07-31T19:34:20.625Z,28.05
2018-07-31T19:36:50.317Z,28.01
2018-07-31T19:39:20.037Z,27.87
2018-07-31T19:41:50.043Z,27.82
2018-07-31T19:44:20.353Z,27.76
2018-07-31T19:46:50.030Z,27.69
2018-07-31T19:49:19.718Z,27.67
2018-07-31T19:51:54.903Z,27.69
2018-07-31T19:54:24.888Z,27.63
2018-07-31T19:56:54.775Z,27.52
2018-07-31T19:59:26.820Z,27.52
2018-07-31T20:01:57.088Z,27.52
2018-07-31T20:07:09.442Z,27.47
2018-07-31T20:09:39.174Z,27.43
2018-07-31T20:12:09.522Z,27.40
2018-07-31T20:14:40.948Z,27.20
2018-07-31T20:17:10.595Z,27.16
2018-07-31T20:19:40.419Z,27.17
2018-07-31T20:22:10.436Z,27.10
2018-07-31T20:24:40.412Z,27.12
2018-07-31T20:27:10.253Z,27.14
2018-07-31T20:29:41.260Z,27.10
2018-07-31T20:32:11.301Z,27.11
2018-07-31T20:34:44.633Z,27.02
2018-07-31T20:37:16.025Z,26.82
2018-07-31T20:39:45.776Z,26.87
2018-07-31T20:42:15.817Z,26.80
2018-07-31T20:44:48.968Z,26.76
2018-07-31T20:47:19.789Z,26.72
2018-07-31T20:49:49.561Z,26.66
2018-07-31T20:52:19.412Z,26.65
2018-07-31T20:54:49.368Z,26.53
2018-07-31T20:57:20.172Z,26.50
2018-07-31T20:59:49.921Z,26.42
2018-07-31T21:02:20.513Z,26.52
2018-07-31T21:04:50.768Z,26.53
2018-07-31T21:07:20.693Z,26.48
2018-07-31T21:09:52.308Z,26.43
2018-07-31T21:12:25.431Z,26.37
2018-07-31T21:14:56.620Z,26.39
2018-07-31T21:17:28.888Z,26.35
2018-07-31T21:20:03.285Z,26.38
2018-07-31T21:22:37.217Z,26.31
2018-07-31T21:25:10.384Z,26.25
2018-07-31T21:27:43.053Z,26.20
2018-07-31T21:30:14.383Z,26.13
2018-07-31T21:32:46.540Z,26.03
2018-07-31T21:35:18.415Z,25.78
2018-07-31T21:37:52.474Z,25.75
2018-07-31T21:40:25.612Z,25.66
2018-07-31T21:42:56.386Z,25.70
2018-07-31T21:45:29.358Z,25.73
2018-07-31T21:48:01.472Z,25.74
2018-07-31T21:50:33.846Z,25.69
2018-07-31T21:53:05.357Z,25.14
2018-07-31T21:55:38.191Z,25.50
2018-07-31T21:58:09.528Z,25.43
2018-07-31T22:00:52.113Z,25.42
2018-07-31T22:03:26.177Z,25.47
2018-07-31T22:05:57.309Z,25.43
2018-07-31T22:08:29.974Z,25.37
2018-07-31T22:11:03.549Z,25.32
2018-07-31T22:13:36.948Z,25.26
2018-07-31T22:16:10.218Z,25.21
2018-07-31T22:18:41.431Z,25.08
2018-07-31T22:21:11.863Z,25.07
2018-07-31T22:23:42.654Z,25.04
2018-07-31T22:26:13.974Z,25.00
2018-07-31T22:28:45.120Z,24.96
2018-07-31T22:31:14.990Z,24.96
2018-07-31T22:33:46.934Z,24.88
2018-07-31T22:36:16.840Z,24.85
2018-07-31T22:38:47.004Z,24.82
2018-07-31T22:41:17.849Z,24.81
2018-07-31T22:43:48.317Z,24.78
2018-07-31T22:46:18.163Z,24.72
2018-07-31T22:48:48.096Z,24.71
2018-07-31T22:51:18.111Z,24.69
2018-07-31T22:53:47.995Z,24.65
2018-07-31T22:56:19.001Z,24.57
2018-07-31T22:58:48.924Z,24.54
2018-07-31T23:01:19.338Z,24.56
2018-07-31T23:03:49.531Z,24.54
2018-07-31T23:06:19.420Z,24.51
2018-07-31T23:08:49.282Z,24.52
2018-07-31T23:11:19.270Z,24.49
2018-07-31T23:13:55.605Z,24.43
2018-07-31T23:16:25.353Z,24.38
2018-07-31T23:18:55.208Z,24.31
2018-07-31T23:21:24.890Z,24.26
2018-07-31T23:23:54.606Z,24.22
2018-07-31T23:26:24.324Z,24.11
2018-07-31T23:31:48.574Z,23.87
2018-07-31T23:34:18.343Z,23.82
2018-07-31T23:36:48.047Z,23.88
2018-07-31T23:39:17.728Z,23.95
2018-07-31T23:41:47.485Z,23.98
2018-07-31T23:44:17.095Z,23.98
2018-07-31T23:46:46.780Z,24.01
2018-07-31T23:49:16.439Z,23.97
2018-07-31T23:51:46.103Z,23.91
2018-07-31T23:54:16.238Z,23.88
2018-07-31T23:56:45.987Z,23.82
2018-07-31T23:59:15.727Z,23.83
